Time;durP1;ratioP1;P1;durP2;ratioP2;P2;SDS_P1;SDS_P2;PMS_P1;PMS_P2;Temp;Humidity;BMP_temperature;BMP_pressure;BME280_temperature;BME280_humidity;BME280_pressure;Samples;Min_cycle;Max_cycle;Signal;HPM_P1;HPM_P2
2023/12/11 00:00:23;;;;;;;30.55;5.93;;;10.60;91.80;;;;;;5135772;27;20031;-28
2023/12/11 00:02:49;;;;;;;33.08;6.07;;;10.60;91.80;;;;;;5135120;27;20486;-29
2023/12/11 00:05:15;;;;;;;29.27;5.38;;;10.50;91.80;;;;;;5135318;27;20518;-28
2023/12/11 00:07:40;;;;;;;33.67;4.82;;;10.40;91.80;;;;;;5135499;27;20535;-30
2023/12/11 00:10:06;;;;;;;32.75;5.47;;;10.40;91.90;;;;;;5135345;27;20023;-30
2023/12/11 00:12:32;;;;;;;29.58;5.20;;;10.40;91.90;;;;;;5135272;27;20023;-29
2023/12/11 00:14:59;;;;;;;27.83;5.05;;;10.30;91.90;;;;;;5134943;27;20471;-30
2023/12/11 00:17:25;;;;;;;31.50;6.25;;;10.30;92.00;;;;;;5135245;27;20015;-28
2023/12/11 00:19:50;;;;;;;25.85;4.80;;;10.30;92.00;;;;;;5134807;27;20030;-29
2023/12/11 00:22:16;;;;;;;27.80;5.90;;;10.30;92.10;;;;;;5135078;27;20448;-27
2023/12/11 00:24:41;;;;;;;22.95;4.65;;;10.30;92.00;;;;;;5134986;27;20508;-30
2023/12/11 00:27:07;;;;;;;27.67;5.28;;;10.30;92.00;;;;;;5134814;27;20027;-31
2023/12/11 00:29:32;;;;;;;27.75;5.18;;;10.40;92.00;;;;;;5134632;27;20050;-32
2023/12/11 00:31:58;;;;;;;27.33;5.90;;;10.40;92.00;;;;;;5134517;27;20035;-31
2023/12/11 00:34:23;;;;;;;27.88;5.20;;;10.30;92.00;;;;;;5134616;27;20102;-29
2023/12/11 00:36:49;;;;;;;25.60;4.80;;;10.40;92.00;;;;;;5134679;27;20432;-29
2023/12/11 00:39:16;;;;;;;29.35;5.05;;;10.40;92.00;;;;;;5134449;27;20027;-29
2023/12/11 00:41:43;;;;;;;25.30;4.97;;;10.40;92.00;;;;;;5134738;27;20035;-29
2023/12/11 00:44:09;;;;;;;25.90;4.22;;;10.40;91.90;;;;;;5134589;27;20478;-28
2023/12/11 00:46:34;;;;;;;25.60;5.13;;;10.40;91.90;;;;;;5133231;27;20390;-29
2023/12/11 00:49:00;;;;;;;28.10;5.07;;;10.40;91.90;;;;;;5134402;27;20034;-32
2023/12/11 00:51:25;;;;;;;27.55;4.53;;;10.50;92.00;;;;;;5134224;27;20471;-31
2023/12/11 00:53:51;;;;;;;33.70;5.13;;;10.40;91.90;;;;;;5134333;27;20063;-31
2023/12/11 00:56:17;;;;;;;31.58;4.95;;;10.40;91.90;;;;;;5134265;27;20038;-34
2023/12/11 00:58:43;;;;;;;29.77;5.00;;;10.30;91.90;;;;;;5134309;27;20102;-31
2023/12/11 01:01:08;;;;;;;18.42;3.53;;;10.30;92.00;;;;;;5134571;27;20061;-32
2023/12/11 01:03:36;;;;;;;19.38;4.43;;;10.30;92.00;;;;;;5134074;27;20029;-35
2023/12/11 01:06:01;;;;;;;18.85;4.57;;;10.40;92.00;;;;;;5134049;27;20071;-29
2023/12/11 01:08:27;;;;;;;32.40;4.97;;;10.40;92.00;;;;;;5134073;27;20023;-29
2023/12/11 01:10:54;;;;;;;24.90;4.93;;;10.30;92.00;;;;;;5134219;27;20038;-34
2023/12/11 01:13:20;;;;;;;21.70;4.30;;;10.30;92.00;;;;;;5134080;27;20382;-33
2023/12/11 01:15:45;;;;;;;26.85;4.60;;;10.40;92.00;;;;;;5133977;27;20098;-33
2023/12/11 01:18:11;;;;;;;31.25;5.03;;;10.40;92.00;;;;;;5133931;27;20076;-30
2023/12/11 01:20:38;;;;;;;26.23;4.95;;;10.40;92.00;;;;;;5133725;27;20061;-30
2023/12/11 01:23:04;;;;;;;26.10;4.30;;;10.40;92.20;;;;;;5133660;27;20485;-30
2023/12/11 01:25:30;;;;;;;19.42;4.43;;;10.40;91.90;;;;;;5133856;27;20023;-34
2023/12/11 01:27:55;;;;;;;25.17;4.78;;;10.40;91.80;;;;;;5133637;27;20031;-29
2023/12/11 01:30:21;;;;;;;23.65;3.95;;;10.50;91.80;;;;;;5133452;27;20024;-31
2023/12/11 01:32:46;;;;;;;24.80;4.07;;;10.50;91.80;;;;;;5133323;27;20047;-29
2023/12/11 01:35:12;;;;;;;16.02;4.20;;;10.50;91.80;;;;;;5133875;27;20042;-27
2023/12/11 01:37:38;;;;;;;22.65;4.90;;;10.50;91.70;;;;;;5133526;27;20031;-31
2023/12/11 01:40:05;;;;;;;31.88;4.57;;;10.60;91.70;;;;;;5133794;27;20030;-30
2023/12/11 01:42:32;;;;;;;23.75;4.20;;;10.60;91.60;;;;;;5133362;27;20030;-29
2023/12/11 01:44:57;;;;;;;24.48;4.45;;;10.60;91.60;;;;;;5133258;27;20031;-29
2023/12/11 01:47:23;;;;;;;22.83;4.25;;;10.60;91.60;;;;;;5133101;27;20064;-29
2023/12/11 01:49:49;;;;;;;19.73;4.57;;;10.50;91.60;;;;;;5133258;27;20019;-28
2023/12/11 01:52:15;;;;;;;23.83;4.38;;;10.60;91.70;;;;;;5133276;27;20033;-28
2023/12/11 01:54:41;;;;;;;19.08;3.95;;;10.60;91.50;;;;;;5133100;27;20050;-30
2023/12/11 01:57:08;;;;;;;17.23;3.85;;;10.60;91.60;;;;;;5133416;27;20015;-30
2023/12/11 01:59:34;;;;;;;19.75;4.15;;;10.60;91.50;;;;;;5133099;27;20034;-34
2023/12/11 02:02:01;;;;;;;20.35;4.45;;;10.60;91.50;;;;;;5132822;27;20027;-29
2023/12/11 02:04:26;;;;;;;27.10;4.18;;;10.60;91.50;;;;;;5133245;27;20019;-30
2023/12/11 02:06:53;;;;;;;20.13;4.35;;;10.60;91.50;;;;;;5132786;27;20352;-30
2023/12/11 02:09:18;;;;;;;21.35;3.92;;;10.60;91.40;;;;;;5132884;27;20023;-30
2023/12/11 02:11:44;;;;;;;21.90;4.28;;;10.60;91.40;;;;;;5133087;27;20026;-30
2023/12/11 02:14:09;;;;;;;21.65;4.22;;;10.60;91.40;;;;;;5132784;27;20029;-30
2023/12/11 02:16:35;;;;;;;22.50;4.35;;;10.60;91.40;;;;;;5132339;27;20471;-34
2023/12/11 02:19:01;;;;;;;28.58;5.18;;;10.60;91.40;;;;;;5132697;27;20019;-32
2023/12/11 02:21:26;;;;;;;20.25;4.13;;;10.60;91.30;;;;;;5132728;27;20530;-29
2023/12/11 02:23:58;;;;;;;29.65;4.68;;;10.60;91.40;;;;;;5132986;27;20527;-30
2023/12/11 02:26:24;;;;;;;27.15;4.68;;;10.60;91.40;;;;;;5132656;27;20023;-29
2023/12/11 02:28:49;;;;;;;26.98;4.93;;;10.60;91.40;;;;;;5132569;27;20019;-28
2023/12/11 02:31:15;;;;;;;22.65;4.47;;;10.60;91.40;;;;;;5132583;27;20078;-31
2023/12/11 02:33:41;;;;;;;29.15;4.95;;;10.60;91.40;;;;;;5132739;27;20011;-29
2023/12/11 02:36:06;;;;;;;24.88;4.70;;;10.60;91.40;;;;;;5132941;27;20016;-28
2023/12/11 02:38:32;;;;;;;18.98;3.95;;;10.60;91.50;;;;;;5132594;27;20467;-30
2023/12/11 02:40:58;;;;;;;24.10;4.70;;;10.60;91.50;;;;;;5132604;27;20102;-29
2023/12/11 02:43:23;;;;;;;20.98;3.92;;;10.60;91.50;;;;;;5132569;27;20027;-29
2023/12/11 02:45:49;;;;;;;25.42;4.68;;;10.60;91.50;;;;;;5132685;27;20016;-28
2023/12/11 02:48:15;;;;;;;26.25;4.53;;;10.70;91.50;;;;;;5132413;27;20118;-29
2023/12/11 02:50:40;;;;;;;27.80;4.20;;;10.60;91.50;;;;;;5132701;27;20100;-29
2023/12/11 02:53:06;;;;;;;22.60;4.60;;;10.60;91.50;;;;;;5132268;27;20022;-29
2023/12/11 02:55:32;;;;;;;24.27;4.05;;;10.70;91.50;;;;;;5132848;27;20058;-29
2023/12/11 02:58:03;;;;;;;21.02;4.25;;;10.70;91.50;;;;;;5132752;27;20359;-29
2023/12/11 03:00:30;;;;;;;26.23;4.68;;;10.70;91.50;;;;;;5132820;27;20028;-29
2023/12/11 03:02:57;;;;;;;22.92;3.95;;;10.70;91.60;;;;;;5132200;27;20445;-29
2023/12/11 03:05:22;;;;;;;22.70;4.07;;;10.60;91.60;;;;;;5132476;27;20482;-30
2023/12/11 03:07:48;;;;;;;29.10;5.28;;;10.60;91.60;;;;;;5132251;27;20072;-28
2023/12/11 03:10:14;;;;;;;27.27;5.13;;;10.60;91.80;;;;;;5132263;27;20135;-29
2023/12/11 03:12:39;;;;;;;24.83;4.05;;;10.50;91.90;;;;;;5132203;27;20019;-29
2023/12/11 03:15:06;;;;;;;18.67;3.92;;;10.40;92.00;;;;;;5132211;27;20031;-29
2023/12/11 03:17:32;;;;;;;22.77;4.13;;;10.40;92.10;;;;;;5132277;27;20049;-26
2023/12/11 03:19:59;;;;;;;38.67;6.32;;;10.30;92.30;;;;;;5132129;27;20051;-30
2023/12/11 03:22:25;;;;;;;29.85;4.90;;;10.30;92.50;;;;;;5132314;27;20023;-31
2023/12/11 03:24:54;;;;;;;18.48;3.63;;;10.30;92.80;;;;;;5132267;27;20427;-33
2023/12/11 03:27:20;;;;;;;22.08;3.50;;;10.20;92.80;;;;;;5132265;27;20024;-31
2023/12/11 03:29:47;;;;;;;17.52;4.05;;;10.20;93.00;;;;;;5136181;27;20416;-36
2023/12/11 03:32:12;;;;;;;13.52;3.03;;;10.10;93.00;;;;;;5135973;27;20111;-33
2023/12/11 03:34:38;;;;;;;15.60;2.80;;;10.10;93.10;;;;;;5135704;27;20023;-31
2023/12/11 03:37:03;;;;;;;16.13;3.63;;;10.00;93.10;;;;;;5135991;27;20144;-31
2023/12/11 03:39:29;;;;;;;9.60;3.13;;;10.00;93.10;;;;;;5136029;27;20023;-28
2023/12/11 03:41:55;;;;;;;16.77;3.30;;;10.00;93.20;;;;;;5135844;27;20023;-30
2023/12/11 03:44:20;;;;;;;18.63;3.03;;;9.90;93.20;;;;;;5135712;27;20387;-28
2023/12/11 03:46:46;;;;;;;21.63;4.03;;;10.00;93.30;;;;;;5135722;27;20342;-31
2023/12/11 03:49:16;;;;;;;19.63;3.17;;;10.00;93.30;;;;;;5135914;27;20022;-29
2023/12/11 03:51:42;;;;;;;25.88;3.72;;;9.90;93.30;;;;;;5135661;27;20019;-27
2023/12/11 03:54:08;;;;;;;19.40;3.70;;;9.90;93.40;;;;;;5135303;27;20042;-28
2023/12/11 03:56:33;;;;;;;21.45;3.20;;;9.90;93.30;;;;;;5135601;27;20027;-28
2023/12/11 03:58:59;;;;;;;17.63;3.38;;;9.90;93.30;;;;;;5135526;27;20475;-30
2023/12/11 04:01:24;;;;;;;21.77;4.13;;;9.90;93.30;;;;;;5135562;27;20019;-30
2023/12/11 04:03:50;;;;;;;15.30;3.15;;;10.00;93.40;;;;;;5135360;27;20080;-29
2023/12/11 04:06:15;;;;;;;16.70;3.42;;;10.00;93.30;;;;;;5135741;27;20463;-29
2023/12/11 04:08:42;;;;;;;18.80;3.25;;;9.90;93.30;;;;;;5135759;27;20478;-28
2023/12/11 04:11:08;;;;;;;20.00;3.58;;;9.90;93.30;;;;;;5135576;27;20372;-28
2023/12/11 04:13:34;;;;;;;19.80;3.72;;;9.90;93.30;;;;;;5135398;27;20015;-32
2023/12/11 04:16:00;;;;;;;20.95;4.07;;;10.00;93.30;;;;;;5135335;27;20022;-28
2023/12/11 04:18:25;;;;;;;19.00;3.63;;;10.00;93.30;;;;;;5135092;27;20518;-29
2023/12/11 04:20:51;;;;;;;19.80;3.55;;;10.00;93.30;;;;;;5135568;27;20075;-31
2023/12/11 04:23:16;;;;;;;16.92;3.20;;;9.90;93.30;;;;;;5135046;27;20486;-27
2023/12/11 04:25:42;;;;;;;21.17;3.50;;;10.00;93.30;;;;;;5135113;27;20015;-29
2023/12/11 04:28:07;;;;;;;16.95;3.47;;;10.00;93.30;;;;;;5134965;27;20497;-29
2023/12/11 04:30:33;;;;;;;15.57;3.42;;;10.00;93.30;;;;;;5134821;27;20027;-29
2023/12/11 04:32:59;;;;;;;15.48;3.05;;;10.00;93.30;;;;;;5134868;27;20042;-29
2023/12/11 04:35:25;;;;;;;13.85;2.95;;;10.00;93.40;;;;;;5134862;27;20206;-28
2023/12/11 04:37:50;;;;;;;22.80;3.30;;;10.00;93.30;;;;;;5134788;27;20113;-28
2023/12/11 04:40:16;;;;;;;16.23;3.42;;;10.00;93.40;;;;;;5134604;27;20023;-30
2023/12/11 04:42:41;;;;;;;21.40;4.13;;;10.00;93.40;;;;;;5134921;27;20053;-30
2023/12/11 04:45:07;;;;;;;17.00;4.10;;;10.10;93.40;;;;;;5134390;27;20475;-29
2023/12/11 04:47:33;;;;;;;28.88;4.68;;;10.10;93.40;;;;;;5134748;27;20038;-30
2023/12/11 04:49:59;;;;;;;21.23;4.20;;;10.10;93.50;;;;;;5134476;27;20023;-29
2023/12/11 04:52:24;;;;;;;19.95;3.83;;;10.10;93.50;;;;;;5133297;27;20029;-29
2023/12/11 04:54:50;;;;;;;24.83;4.25;;;10.10;93.40;;;;;;5134450;27;20106;-31
2023/12/11 04:57:15;;;;;;;18.90;4.68;;;10.10;93.40;;;;;;5134293;27;20281;-29
2023/12/11 04:59:41;;;;;;;17.77;4.00;;;10.10;93.40;;;;;;5134396;27;20023;-28
2023/12/11 05:02:07;;;;;;;24.52;4.28;;;10.20;93.40;;;;;;5132720;27;20019;-28
2023/12/11 05:04:32;;;;;;;23.75;4.28;;;10.20;93.40;;;;;;5134209;27;20020;-30
2023/12/11 05:06:58;;;;;;;26.42;4.63;;;10.20;93.30;;;;;;5134353;27;20035;-29
2023/12/11 05:09:23;;;;;;;24.95;4.70;;;10.20;93.30;;;;;;5134484;27;20016;-28
2023/12/11 05:11:49;;;;;;;21.98;5.07;;;10.20;93.30;;;;;;5134009;27;20019;-28
2023/12/11 05:14:14;;;;;;;25.35;4.63;;;10.20;93.30;;;;;;5134105;27;20019;-29
2023/12/11 05:16:40;;;;;;;19.45;4.05;;;10.20;93.30;;;;;;5134144;27;20023;-28
2023/12/11 05:19:05;;;;;;;28.42;4.28;;;10.20;93.20;;;;;;5133614;27;20023;-28
2023/12/11 05:21:31;;;;;;;24.92;4.55;;;10.20;93.20;;;;;;5133859;27;20023;-28
2023/12/11 05:23:56;;;;;;;25.65;4.55;;;10.30;93.20;;;;;;5133862;27;20355;-28
2023/12/11 05:26:22;;;;;;;24.70;5.60;;;10.20;93.10;;;;;;5134047;27;20478;-28
2023/12/11 05:28:48;;;;;;;24.52;4.25;;;10.20;93.10;;;;;;5133764;27;20451;-29
2023/12/11 05:31:14;;;;;;;20.15;4.20;;;10.20;93.10;;;;;;5133690;27;20043;-29
2023/12/11 05:33:40;;;;;;;20.85;3.83;;;10.20;93.10;;;;;;5133543;27;20482;-27
2023/12/11 05:36:07;;;;;;;19.83;3.80;;;10.20;93.10;;;;;;5133902;27;20031;-28
2023/12/11 05:38:33;;;;;;;26.40;4.25;;;10.20;93.10;;;;;;5132274;27;20114;-30
2023/12/11 05:40:58;;;;;;;29.65;4.30;;;10.30;93.10;;;;;;5133506;27;20100;-31
2023/12/11 05:43:24;;;;;;;21.08;4.03;;;10.20;93.10;;;;;;5133339;27;20023;-29
2023/12/11 05:45:50;;;;;;;19.23;3.55;;;10.20;93.10;;;;;;5133796;27;20026;-30
2023/12/11 05:48:15;;;;;;;24.25;4.18;;;10.20;93.20;;;;;;5133288;27;20115;-28
2023/12/11 05:50:41;;;;;;;20.85;3.95;;;10.30;93.20;;;;;;5133073;27;20072;-29
2023/12/11 05:53:07;;;;;;;23.65;3.92;;;10.30;93.20;;;;;;5132935;27;20031;-30
2023/12/11 05:55:33;;;;;;;22.10;4.13;;;10.30;93.20;;;;;;5133422;27;20023;-31
2023/12/11 05:57:58;;;;;;;24.98;3.95;;;10.20;93.10;;;;;;5133501;27;20015;-31
2023/12/11 06:00:24;;;;;;;23.80;4.20;;;10.20;93.10;;;;;;5133343;27;20031;-31
2023/12/11 06:02:49;;;;;;;27.83;4.50;;;10.30;93.10;;;;;;5132986;27;20035;-27
2023/12/11 06:05:15;;;;;;;17.60;3.47;;;10.30;93.10;;;;;;5133095;27;20317;-29
2023/12/11 06:07:40;;;;;;;23.55;3.95;;;10.30;93.10;;;;;;5132627;27;20073;-29
2023/12/11 06:10:06;;;;;;;27.38;4.45;;;10.30;93.00;;;;;;5133232;27;20026;-30
2023/12/11 06:12:32;;;;;;;23.63;3.50;;;10.30;93.00;;;;;;5133319;27;20023;-30
2023/12/11 06:14:58;;;;;;;16.88;3.92;;;10.30;93.00;;;;;;5132910;27;20015;-29
2023/12/11 06:17:23;;;;;;;25.42;4.35;;;10.30;92.90;;;;;;5131647;27;20023;-32
2023/12/11 06:19:49;;;;;;;21.33;3.95;;;10.30;92.90;;;;;;5132679;27;20023;-29
2023/12/11 06:22:14;;;;;;;20.95;4.20;;;10.30;92.90;;;;;;5132936;27;20033;-30
2023/12/11 06:24:40;;;;;;;31.15;4.25;;;10.30;92.90;;;;;;5132763;27;20030;-27
2023/12/11 06:27:06;;;;;;;26.13;4.63;;;10.30;93.00;;;;;;5132765;27;20034;-32
2023/12/11 06:29:32;;;;;;;21.58;3.80;;;10.20;92.90;;;;;;5133086;27;20023;-27
2023/12/11 06:31:58;;;;;;;15.82;3.55;;;10.20;93.00;;;;;;5132593;27;20069;-28
2023/12/11 06:34:23;;;;;;;19.73;3.40;;;10.20;93.00;;;;;;5132561;27;20102;-30
2023/12/11 06:36:49;;;;;;;19.58;3.60;;;10.20;93.00;;;;;;5133043;27;20025;-29
2023/12/11 06:39:15;;;;;;;21.42;4.32;;;10.20;93.00;;;;;;5132958;27;20023;-32
2023/12/11 06:41:41;;;;;;;21.52;4.05;;;10.20;93.00;;;;;;5132549;27;20041;-28
2023/12/11 06:44:06;;;;;;;19.70;3.42;;;10.10;93.10;;;;;;5132889;27;20027;-28
2023/12/11 06:46:32;;;;;;;19.08;3.38;;;10.10;93.10;;;;;;5132744;27;20456;-31
2023/12/11 06:48:57;;;;;;;19.48;3.50;;;10.10;93.20;;;;;;5132594;27;20459;-29
2023/12/11 06:51:27;;;;;;;20.10;4.15;;;10.10;93.20;;;;;;5132543;27;20447;-29
2023/12/11 06:53:58;;;;;;;21.27;3.90;;;10.10;93.30;;;;;;5132357;27;20104;-29
2023/12/11 06:56:27;;;;;;;27.10;4.22;;;10.00;93.30;;;;;;5132848;27;20027;-29
2023/12/11 06:58:53;;;;;;;23.55;4.13;;;10.00;93.30;;;;;;5132698;27;20015;-34
2023/12/11 07:01:18;;;;;;;23.92;3.70;;;10.00;93.40;;;;;;5131028;27;20106;-32
2023/12/11 07:03:48;;;;;;;17.75;3.55;;;10.00;93.40;;;;;;5135017;27;20119;-33
2023/12/11 07:06:17;;;;;;;23.88;4.38;;;10.00;93.40;;;;;;5136657;27;20055;-33
2023/12/11 07:08:42;;;;;;;23.17;3.45;;;10.00;93.40;;;;;;5135073;27;20019;-30
2023/12/11 07:11:08;;;;;;;21.63;3.72;;;10.00;93.30;;;;;;5136549;27;20015;-34
2023/12/11 07:13:33;;;;;;;23.13;3.70;;;10.00;93.30;;;;;;5136543;27;20020;-33
2023/12/11 07:15:59;;;;;;;20.55;3.97;;;10.10;93.30;;;;;;5136477;27;20086;-35
2023/12/11 07:18:24;;;;;;;24.35;4.55;;;10.10;93.30;;;;;;5136564;27;20023;-31
2023/12/11 07:20:50;;;;;;;23.73;3.50;;;10.00;93.20;;;;;;5136174;27;20080;-30
2023/12/11 07:23:15;;;;;;;22.30;3.88;;;10.00;93.30;;;;;;5136100;27;20042;-33
2023/12/11 07:25:41;;;;;;;17.55;3.65;;;10.00;93.30;;;;;;5136075;27;20047;-29
2023/12/11 07:28:06;;;;;;;18.48;3.67;;;10.00;93.60;;;;;;5136150;27;20460;-34
2023/12/11 07:30:32;;;;;;;22.83;4.43;;;10.00;93.30;;;;;;5135765;27;20432;-35
2023/12/11 07:32:58;;;;;;;22.52;4.30;;;10.00;93.30;;;;;;5136174;27;20094;-37
2023/12/11 07:35:24;;;;;;;14.73;3.63;;;10.00;93.50;;;;;;5136082;27;20055;-34
2023/12/11 07:37:50;;;;;;;23.38;3.80;;;10.00;93.20;;;;;;5136091;27;20091;-34
2023/12/11 07:40:16;;;;;;;19.83;3.63;;;10.00;93.20;;;;;;5136059;27;20109;-37
2023/12/11 07:42:43;;;;;;;20.52;4.30;;;9.90;93.30;;;;;;5135805;27;20145;-36
2023/12/11 07:45:10;;;;;;;21.55;3.75;;;9.90;93.40;;;;;;5135452;27;20055;-29
2023/12/11 07:47:35;;;;;;;22.85;3.35;;;9.80;93.50;;;;;;5135945;27;20080;-28
2023/12/11 07:50:02;;;;;;;18.45;3.63;;;9.80;93.50;;;;;;5135806;27;20019;-32
2023/12/11 07:52:31;;;;;;;24.98;4.30;;;9.70;93.70;;;;;;5135794;27;20007;-35
2023/12/11 07:54:58;;;;;;;13.30;3.20;;;9.70;94.00;;;;;;5135761;27;20176;-30
2023/12/11 07:57:25;;;;;;;17.60;3.90;;;9.70;93.90;;;;;;5135722;27;20103;-29
2023/12/11 07:59:51;;;;;;;17.25;3.25;;;9.70;93.90;;;;;;5135205;27;20072;-30
2023/12/11 08:02:16;;;;;;;19.02;3.10;;;9.70;94.00;;;;;;5135619;27;20031;-28
2023/12/11 08:04:42;;;;;;;19.17;3.20;;;9.70;93.90;;;;;;5135210;27;20360;-33
2023/12/11 08:07:07;;;;;;;11.05;2.42;;;9.70;93.90;;;;;;5133785;27;20023;-28
2023/12/11 08:09:37;;;;;;;17.38;3.25;;;9.70;93.90;;;;;;5135561;27;20026;-28
2023/12/11 08:12:03;;;;;;;11.77;2.45;;;9.70;93.80;;;;;;5135377;27;20336;-29
2023/12/11 08:14:29;;;;;;;15.23;3.20;;;9.70;93.80;;;;;;5134517;27;20011;-35
2023/12/11 08:16:54;;;;;;;15.48;3.25;;;9.70;93.80;;;;;;5133738;27;20543;-32
2023/12/11 08:19:20;;;;;;;15.40;3.17;;;9.60;93.80;;;;;;5135036;27;20019;-29
2023/12/11 08:21:46;;;;;;;12.70;3.22;;;9.60;93.90;;;;;;5135138;27;20027;-30
2023/12/11 08:24:12;;;;;;;13.15;3.13;;;9.60;93.90;;;;;;5134997;27;20029;-28
2023/12/11 08:26:37;;;;;;;11.68;2.58;;;9.60;93.90;;;;;;5134671;27;20023;-29
2023/12/11 08:29:03;;;;;;;12.55;2.35;;;9.60;93.90;;;;;;5134771;27;20021;-35
2023/12/11 08:31:28;;;;;;;12.43;2.17;;;9.60;93.80;;;;;;5134599;27;20040;-32
2023/12/11 08:33:54;;;;;;;8.75;2.30;;;9.60;93.70;;;;;;5134748;27;20028;-30
2023/12/11 08:36:20;;;;;;;9.85;2.00;;;9.70;93.70;;;;;;5134887;27;20068;-32
2023/12/11 08:38:45;;;;;;;6.50;2.08;;;9.70;93.70;;;;;;5134494;27;20035;-28
2023/12/11 08:41:11;;;;;;;10.98;2.75;;;9.70;93.70;;;;;;5134560;27;20028;-28
2023/12/11 08:43:36;;;;;;;16.30;3.50;;;9.70;93.60;;;;;;5134830;27;20498;-30
2023/12/11 08:46:02;;;;;;;10.68;2.40;;;9.70;93.60;;;;;;5134598;27;20023;-31
2023/12/11 08:48:28;;;;;;;12.13;2.50;;;9.80;93.60;;;;;;5134720;27;20029;-31
2023/12/11 08:50:53;;;;;;;12.85;2.50;;;9.80;93.60;;;;;;5134503;27;20027;-28
2023/12/11 08:53:23;;;;;;;13.50;2.47;;;9.80;93.60;;;;;;5134399;27;20050;-30
2023/12/11 08:55:49;;;;;;;13.98;2.65;;;9.80;93.60;;;;;;5134691;27;20023;-29
2023/12/11 08:58:15;;;;;;;13.70;2.58;;;9.80;93.60;;;;;;5134511;27;20023;-31
2023/12/11 09:00:42;;;;;;;11.43;2.40;;;9.80;93.50;;;;;;5134661;27;20035;-29
2023/12/11 09:03:07;;;;;;;12.18;3.10;;;9.80;93.40;;;;;;5134315;27;20045;-31
2023/12/11 09:05:33;;;;;;;11.50;2.15;;;9.90;93.30;;;;;;5134218;27;20023;-29
2023/12/11 09:07:59;;;;;;;11.10;3.05;;;9.90;93.20;;;;;;5133937;27;20023;-33
2023/12/11 09:10:24;;;;;;;9.00;2.13;;;10.00;92.70;;;;;;5134205;27;20058;-29
2023/12/11 09:12:50;;;;;;;11.57;2.53;;;10.00;92.60;;;;;;5132654;27;20030;-30
2023/12/11 09:15:17;;;;;;;9.90;2.17;;;10.00;92.30;;;;;;5132690;27;20084;-28
2023/12/11 09:17:43;;;;;;;11.68;2.40;;;10.00;92.40;;;;;;5133668;27;20031;-31
2023/12/11 09:20:09;;;;;;;8.32;2.25;;;10.00;92.00;;;;;;5133973;27;20056;-29
2023/12/11 09:22:37;;;;;;;7.43;1.90;;;10.10;91.90;;;;;;5133823;27;20106;-29
2023/12/11 09:25:03;;;;;;;7.82;2.15;;;10.10;91.60;;;;;;5133140;27;20033;-29
2023/12/11 09:27:28;;;;;;;8.13;1.85;;;10.10;91.20;;;;;;5133144;27;20106;-30
2023/12/11 09:29:54;;;;;;;5.30;1.50;;;10.10;91.50;;;;;;5132394;27;20142;-28
2023/12/11 09:32:19;;;;;;;9.65;1.70;;;10.10;91.50;;;;;;5133442;27;20582;-29
2023/12/11 09:34:46;;;;;;;9.07;2.33;;;10.20;90.90;;;;;;5133790;27;20031;-32
2023/12/11 09:37:11;;;;;;;9.80;2.05;;;10.20;90.70;;;;;;5133363;27;20083;-29
2023/12/11 09:39:39;;;;;;;7.15;2.25;;;10.20;90.80;;;;;;5133539;27;20436;-29
2023/12/11 09:42:07;;;;;;;8.50;2.08;;;10.20;90.60;;;;;;5133471;27;20122;-29
2023/12/11 09:44:33;;;;;;;11.18;2.35;;;10.20;90.30;;;;;;5133500;27;20039;-29
2023/12/11 09:47:08;;;;;;;10.77;2.40;;;10.20;90.00;;;;;;5133339;27;20070;-29
2023/12/11 09:49:33;;;;;;;9.00;1.90;;;10.20;90.20;;;;;;5133201;27;20035;-28
2023/12/11 09:52:01;;;;;;;10.70;2.08;;;10.20;90.10;;;;;;5133273;27;20023;-30
2023/12/11 09:54:26;;;;;;;8.98;2.22;;;10.20;90.10;;;;;;5132972;27;20062;-30
2023/12/11 09:56:53;;;;;;;11.95;2.38;;;10.20;89.90;;;;;;5132209;27;20540;-29
2023/12/11 09:59:19;;;;;;;9.18;2.58;;;10.20;90.20;;;;;;5133202;27;20046;-29
2023/12/11 10:01:47;;;;;;;10.70;2.30;;;10.20;90.20;;;;;;5133090;27;20080;-29
2023/12/11 10:04:13;;;;;;;6.18;2.00;;;10.30;89.90;;;;;;5132884;27;20039;-30
2023/12/11 10:06:39;;;;;;;11.82;2.17;;;10.30;90.00;;;;;;5133234;27;20023;-32
2023/12/11 10:09:05;;;;;;;14.48;2.67;;;10.30;90.00;;;;;;5132911;27;20050;-28
2023/12/11 10:11:31;;;;;;;11.35;2.25;;;10.30;89.70;;;;;;5133055;27;20064;-29
2023/12/11 10:14:10;;;;;;;11.77;2.53;;;10.30;89.40;;;;;;5133141;27;20024;-29
2023/12/11 10:16:36;;;;;;;5.63;2.00;;;10.30;89.00;;;;;;5133289;27;20110;-29
2023/12/11 10:19:02;;;;;;;10.52;2.10;;;10.30;89.50;;;;;;5131288;27;20122;-29
2023/12/11 10:21:41;;;;;;;13.55;2.08;;;10.30;89.40;;;;;;5133241;27;20067;-33
2023/12/11 10:24:13;;;;;;;7.07;2.08;;;10.40;89.80;;;;;;5132709;27;20031;-32
2023/12/11 10:26:45;;;;;;;13.45;2.17;;;10.30;89.80;;;;;;5132797;27;20051;-32
2023/12/11 10:29:18;;;;;;;16.30;2.90;;;10.30;90.00;;;;;;5132835;27;20025;-29
2023/12/11 10:31:44;;;;;;;10.65;2.10;;;10.20;90.20;;;;;;5132722;27;20122;-29
2023/12/11 10:34:09;;;;;;;14.93;2.40;;;10.20;90.30;;;;;;5132742;27;20073;-29
2023/12/11 10:36:35;;;;;;;11.68;2.60;;;10.20;90.50;;;;;;5132437;27;20116;-31
2023/12/11 10:39:08;;;;;;;12.40;3.08;;;10.20;90.60;;;;;;5132592;27;20535;-30
2023/12/11 10:41:34;;;;;;;13.65;3.40;;;10.10;90.90;;;;;;5133136;27;20491;-32
2023/12/11 10:43:59;;;;;;;8.55;2.83;;;10.00;90.70;;;;;;5132433;27;20042;-29
2023/12/11 10:46:26;;;;;;;9.65;2.53;;;10.00;90.80;;;;;;5132644;27;20263;-28
2023/12/11 10:48:52;;;;;;;9.52;2.72;;;10.00;90.90;;;;;;5132814;27;20098;-30
2023/12/11 10:51:18;;;;;;;12.82;2.67;;;10.10;91.00;;;;;;5132539;27;20062;-34
2023/12/11 10:53:44;;;;;;;19.23;3.35;;;10.10;91.00;;;;;;5132776;27;20054;-31
2023/12/11 10:56:10;;;;;;;11.82;3.15;;;10.10;90.90;;;;;;5132712;27;20054;-28
2023/12/11 10:58:37;;;;;;;12.88;2.92;;;10.10;90.80;;;;;;5132765;27;20031;-30
2023/12/11 11:01:06;;;;;;;14.45;3.40;;;10.10;90.70;;;;;;5131442;28;20023;-31
2023/12/11 11:03:33;;;;;;;7.80;2.60;;;10.20;90.60;;;;;;5132215;27;20023;-29
2023/12/11 11:05:59;;;;;;;11.18;2.83;;;10.20;90.60;;;;;;5132657;28;20023;-29
2023/12/11 11:08:41;;;;;;;11.80;2.75;;;10.20;90.50;;;;;;5132549;27;20057;-30
2023/12/11 11:11:32;;;;;;;14.80;3.25;;;10.30;90.40;;;;;;5131335;28;20578;-31
2023/12/11 11:14:14;;;;;;;9.90;2.70;;;10.30;90.30;;;;;;5132251;27;20019;-34
2023/12/11 11:16:54;;;;;;;12.38;2.95;;;10.30;90.30;;;;;;5132672;27;20085;-33
2023/12/11 11:19:20;;;;;;;14.35;2.70;;;10.30;90.20;;;;;;5132188;27;20070;-31
2023/12/11 11:22:04;;;;;;;16.67;3.38;;;10.30;90.20;;;;;;5131060;28;20054;-30
2023/12/11 11:24:32;;;;;;;12.02;3.20;;;10.30;90.30;;;;;;5132217;27;20035;-29
2023/12/11 11:26:59;;;;;;;8.95;2.63;;;10.30;90.50;;;;;;5132529;27;20034;-32
2023/12/11 11:29:43;;;;;;;11.10;2.40;;;10.20;90.70;;;;;;5132665;27;20027;-30
2023/12/11 11:32:11;;;;;;;10.35;2.20;;;10.20;91.00;;;;;;5132483;27;20055;-31
2023/12/11 11:34:40;;;;;;;10.85;2.88;;;10.10;91.00;;;;;;5132159;27;20033;-30
2023/12/11 11:37:07;;;;;;;12.23;2.83;;;10.10;91.10;;;;;;5132273;27;20035;-33
2023/12/11 11:39:55;;;;;;;9.13;2.45;;;10.10;91.10;;;;;;5132539;27;20479;-29
2023/12/11 11:42:21;;;;;;;13.88;2.97;;;10.10;91.00;;;;;;5130716;28;20031;-32
2023/12/11 11:44:47;;;;;;;10.48;2.28;;;10.10;91.10;;;;;;5131965;27;20041;-29
2023/12/11 11:47:17;;;;;;;7.82;2.10;;;10.10;91.00;;;;;;5130545;28;20114;-29
2023/12/11 11:49:43;;;;;;;10.52;2.38;;;10.10;91.00;;;;;;5134199;27;20034;-30
2023/12/11 11:52:10;;;;;;;9.82;2.22;;;10.20;90.80;;;;;;5135842;27;20476;-29
2023/12/11 11:54:37;;;;;;;9.80;2.00;;;10.30;90.70;;;;;;5134310;27;20031;-29
2023/12/11 11:57:04;;;;;;;13.20;2.50;;;10.40;90.70;;;;;;5135844;27;20019;-30
2023/12/11 11:59:30;;;;;;;8.55;2.38;;;10.50;90.50;;;;;;5134227;27;20035;-31
2023/12/11 12:01:58;;;;;;;10.77;2.10;;;10.50;89.80;;;;;;5135351;27;20038;-31
2023/12/11 12:04:31;;;;;;;9.38;1.77;;;10.50;88.90;;;;;;5135645;27;20410;-30
2023/12/11 12:07:02;;;;;;;10.57;2.13;;;10.50;88.60;;;;;;5135256;27;20163;-29
2023/12/11 12:09:29;;;;;;;7.85;1.63;;;10.50;87.70;;;;;;5135468;27;20372;-30
2023/12/11 12:11:54;;;;;;;9.15;1.88;;;10.40;86.90;;;;;;5135592;27;20356;-29
2023/12/11 12:14:21;;;;;;;6.97;2.10;;;10.40;84.60;;;;;;5135582;27;20029;-29
2023/12/11 12:16:47;;;;;;;9.30;1.75;;;10.30;85.10;;;;;;5135208;27;20037;-38
2023/12/11 12:19:15;;;;;;;13.57;2.55;;;10.30;84.80;;;;;;5135346;27;20027;-29
2023/12/11 12:21:47;;;;;;;11.10;2.15;;;10.30;84.50;;;;;;5135289;27;20027;-35
2023/12/11 12:24:13;;;;;;;9.15;2.05;;;10.30;85.30;;;;;;5135519;27;20482;-29
2023/12/11 12:26:39;;;;;;;13.45;2.85;;;10.30;84.80;;;;;;5135154;27;20030;-29
2023/12/11 12:29:05;;;;;;;7.65;2.50;;;10.30;84.70;;;;;;5135189;27;20031;-29
2023/12/11 12:31:31;;;;;;;9.05;1.98;;;10.30;85.20;;;;;;5134981;27;20032;-31
2023/12/11 12:33:57;;;;;;;11.60;1.90;;;10.40;85.10;;;;;;5135125;27;20034;-31
2023/12/11 12:36:23;;;;;;;7.35;1.77;;;10.40;83.70;;;;;;5135162;27;20110;-29